Huvudsida
METAR-TAF:

METAR-TAF

Flygplatser :

L.F. Wade International Airport

Bermuda, Bermuda

latitud: 32-22N, longitud: 064-41W, höjd: 6 m

Aktuellt väderrapport

Denna rapport gjordes för 53 minuter sedan, klockan 23:55 UTC
Vind 10 kt från sydost
Temperatur 26°C
Fuktighet 79%
Tryck 1023 hPa
Sikt 10 km eller mer
Få moln på en höjd av 2000 ft
Spridda moln på en höjd av 16000 ft
Brutna moln på en höjd av 30000 ft
skurar i närheten

METAR: TXKF 212355Z 14010KT 9999 VCSH FEW020 SCT160 BKN300 26/22 Q1023

Tid: 21:48 (00:48 UTC)

Väderprognos

Denna rapport gjordes för 1 timme och 10 minuter sedan, klockan 23:38 UTC
Prognos gäller från 22 kl. 00 UTC till 22 kl. 24 UTC
Vind 12 kt från sydost
Sikt 10 km eller mer
Få moln på en höjd av 1800 ft
Brutna moln på en höjd av 30000 ft

TAF: TXKF 212338Z 2200/2224 14012KT 9999 FEW018 BKN300

Aktuella väderrapporter och prognoser från 4000 flygplatser (METAR- och TAF-rapporter).

De tillgängliga stationerna syns som gula och röda prickar på kartan.

För musen över prickarna för att se namnen på stationerna.

Klicka sedan för att få väderrapporter och prognoser.

För att ändra kartan: Klicka på de gröna knapparna med ett svart kors på för att zooma in; den gröna knappen med ett streck på för att zooma ut; eller på de gröna pilarna för angränsande kartor.


METAR-TAF: